Port Gamble, WA (98364)

1:08 PM PDT on September 03, 2015 (GMT -0700)
Laughing Dog | | Change Station
CLOSE
Current Station
Personal Weather Station
Location: Poulsbo, WA
Elevation: 249 ft
Nearby Weather Stations

Elev 249 ft 47.84 °N, 122.61 °W | Updated 1 second ago

Partly Cloudy
Partly Cloudy
63.1 °F
Feels Like 63.1 °F
N
0.0
Wind Variable Wind from South
Gusts 3.6 mph

Today
High -- | Low -- °F
--% Chance of Precip.
Yesterday
High -- | Low -- °F
Precip. -- in
6:31 AM 7:47 PM
Waning Gibbous, 67% visible
Pressure 30.00 in
Visibility 10.0 miles
Clouds Scattered Clouds 3600 ft
Scattered Clouds 4600 ft
Dew Point 50 °F
Humidity 65%
Rainfall 0.00 in
Snow Depth Not available.
UV 6 out of 12
Pollen 1.50 out of 12
Air Quality Not available.
Flu Activity Not available.
METAR KPAE 031953Z 25007KT 10SM SCT036 SCT046 15/09 A3000 RMK AO2 SLP159 T01500094
Pressure 30.00 in
Visibility 10.0 miles
Clouds Scattered Clouds 3600 ft
Scattered Clouds 4600 ft
Dew Point 50 °F
Humidity 65%
Rainfall 0.00 in
Snow Depth Not available.
UV 6 out of 12
Pollen 1.50 out of 12
Air Quality Not available.
Flu Activity Not available.
METAR KPAE 031953Z 25007KT 10SM SCT036 SCT046 15/09 A3000 RMK AO2 SLP159 T01500094

10-Day Weather Forecast

×

Almanac

Astronomy

Sep. 03, 2015 Rise Set
Actual Time
Civil Twilight
Nautical Twilight
Astronomical Twilight
Moon
Length of Visible Light
Length of Day
Tomorrow will be .
, % of the Moon is Illuminated

Today's Extremes

State Highs State Lows

Community

WunderPhotos

Upload Photos

1,852,019 photos uploaded!

WunderBlogs® & News

Nearby

Air Quality

  Air Quality AQ Index Pollutant
Not available.

Snow Depth

Station Depth Elevation

Earthquake Activity

City Distance Mag. Time & Date
Minimum magnitude displayed is 2.5.

Coastal Water Temperatures

Place Temperature

Stations

Nearby Weather Stations

Station Location Temp. Windchill Dew Point Humidity Wind Precip. Elev Updated Type